sensor_id;sensor_type;location;lat;lon;timestamp;temperature;humidity
20045;DHT22;10183;47.808;9.476;2022-09-09T00:00:38;11.80;99.90
20045;DHT22;10183;47.808;9.476;2022-09-09T00:03:18;12.00;99.90
20045;DHT22;10183;47.808;9.476;2022-09-09T00:08:51;12.20;99.90
20045;DHT22;10183;47.808;9.476;2022-09-09T00:14:35;12.30;99.90
20045;DHT22;10183;47.808;9.476;2022-09-09T00:17:09;12.30;99.90
20045;DHT22;10183;47.808;9.476;2022-09-09T00:20:12;12.40;99.90
20045;DHT22;10183;47.808;9.476;2022-09-09T00:22:46;12.40;99.90
20045;DHT22;10183;47.808;9.476;2022-09-09T00:28:20;12.40;99.90
20045;DHT22;10183;47.808;9.476;2022-09-09T00:30:48;12.40;99.90
20045;DHT22;10183;47.808;9.476;2022-09-09T00:33:20;12.30;99.90
20045;DHT22;10183;47.808;9.476;2022-09-09T00:35:54;12.20;99.90
20045;DHT22;10183;47.808;9.476;2022-09-09T00:41:10;12.10;99.90
20045;DHT22;10183;47.808;9.476;2022-09-09T00:43:40;12.10;99.90
20045;DHT22;10183;47.808;9.476;2022-09-09T00:49:00;12.00;99.90
20045;DHT22;10183;47.808;9.476;2022-09-09T00:54:52;12.00;99.90
20045;DHT22;10183;47.808;9.476;2022-09-09T00:57:51;12.00;99.90
20045;DHT22;10183;47.808;9.476;2022-09-09T01:00:24;12.10;99.90
20045;DHT22;10183;47.808;9.476;2022-09-09T01:03:30;12.20;99.90
20045;DHT22;10183;47.808;9.476;2022-09-09T01:14:20;12.20;99.90
20045;DHT22;10183;47.808;9.476;2022-09-09T01:16:54;12.30;99.90
20045;DHT22;10183;47.808;9.476;2022-09-09T01:19:57;12.00;99.90
20045;DHT22;10183;47.808;9.476;2022-09-09T01:25:18;12.00;99.90
20045;DHT22;10183;47.808;9.476;2022-09-09T01:27:47;12.00;99.90
20045;DHT22;10183;47.808;9.476;2022-09-09T01:30:16;12.10;99.90
20045;DHT22;10183;47.808;9.476;2022-09-09T01:32:45;12.20;99.90
20045;DHT22;10183;47.808;9.476;2022-09-09T01:35:40;12.30;99.90
20045;DHT22;10183;47.808;9.476;2022-09-09T01:38:09;12.40;99.90
20045;DHT22;10183;47.808;9.476;2022-09-09T01:40:35;12.50;99.90
20045;DHT22;10183;47.808;9.476;2022-09-09T01:43:03;12.50;99.90
20045;DHT22;10183;47.808;9.476;2022-09-09T01:45:30;12.40;99.90
20045;DHT22;10183;47.808;9.476;2022-09-09T01:47:57;12.40;99.90
20045;DHT22;10183;47.808;9.476;2022-09-09T01:50:24;12.40;99.90
20045;DHT22;10183;47.808;9.476;2022-09-09T01:52:56;12.40;99.90
20045;DHT22;10183;47.808;9.476;2022-09-09T01:55:31;12.50;99.90
20045;DHT22;10183;47.808;9.476;2022-09-09T02:00:48;12.50;99.90
20045;DHT22;10183;47.808;9.476;2022-09-09T02:03:27;12.50;99.90
20045;DHT22;10183;47.808;9.476;2022-09-09T02:08:43;12.30;99.90
20045;DHT22;10183;47.808;9.476;2022-09-09T02:11:19;12.20;99.90
20045;DHT22;10183;47.808;9.476;2022-09-09T02:13:48;11.90;99.90
20045;DHT22;10183;47.808;9.476;2022-09-09T02:16:35;11.90;99.90
20045;DHT22;10183;47.808;9.476;2022-09-09T02:19:11;12.00;99.90
20045;DHT22;10183;47.808;9.476;2022-09-09T02:21:41;12.00;99.90
20045;DHT22;10183;47.808;9.476;2022-09-09T02:24:08;12.00;99.90
20045;DHT22;10183;47.808;9.476;2022-09-09T02:26:40;11.90;99.90
20045;DHT22;10183;47.808;9.476;2022-09-09T02:29:12;11.90;99.90
20045;DHT22;10183;47.808;9.476;2022-09-09T02:31:39;11.90;99.90
20045;DHT22;10183;47.808;9.476;2022-09-09T02:34:09;11.90;99.90
20045;DHT22;10183;47.808;9.476;2022-09-09T02:36:38;12.00;99.90
20045;DHT22;10183;47.808;9.476;2022-09-09T02:39:08;12.00;99.90
20045;DHT22;10183;47.808;9.476;2022-09-09T02:41:38;12.10;99.90
20045;DHT22;10183;47.808;9.476;2022-09-09T02:44:16;12.20;99.90
20045;DHT22;10183;47.808;9.476;2022-09-09T02:52:38;12.50;99.90
20045;DHT22;10183;47.808;9.476;2022-09-09T02:57:55;12.70;99.90
20045;DHT22;10183;47.808;9.476;2022-09-09T03:00:26;12.80;99.90
20045;DHT22;10183;47.808;9.476;2022-09-09T03:02:53;12.90;99.90
20045;DHT22;10183;47.808;9.476;2022-09-09T03:05:20;12.90;99.90
20045;DHT22;10183;47.808;9.476;2022-09-09T03:07:47;12.90;99.90
20045;DHT22;10183;47.808;9.476;2022-09-09T03:10:13;13.00;99.90
20045;DHT22;10183;47.808;9.476;2022-09-09T03:12:39;13.00;99.90
20045;DHT22;10183;47.808;9.476;2022-09-09T03:15:06;13.00;99.90
20045;DHT22;10183;47.808;9.476;2022-09-09T03:17:33;12.90;99.90
20045;DHT22;10183;47.808;9.476;2022-09-09T03:20:00;13.00;99.90
20045;DHT22;10183;47.808;9.476;2022-09-09T03:22:27;13.10;99.90
20045;DHT22;10183;47.808;9.476;2022-09-09T03:24:53;13.10;99.90
20045;DHT22;10183;47.808;9.476;2022-09-09T03:27:19;13.40;99.90
20045;DHT22;10183;47.808;9.476;2022-09-09T03:29:46;13.60;99.90
20045;DHT22;10183;47.808;9.476;2022-09-09T03:32:13;13.60;99.90
20045;DHT22;10183;47.808;9.476;2022-09-09T03:34:39;13.60;99.90
20045;DHT22;10183;47.808;9.476;2022-09-09T03:37:06;13.80;99.90
20045;DHT22;10183;47.808;9.476;2022-09-09T03:39:32;13.90;99.90
20045;DHT22;10183;47.808;9.476;2022-09-09T03:41:58;14.00;99.90
20045;DHT22;10183;47.808;9.476;2022-09-09T03:44:25;14.10;99.90
20045;DHT22;10183;47.808;9.476;2022-09-09T03:46:51;14.10;99.90
20045;DHT22;10183;47.808;9.476;2022-09-09T03:49:17;14.10;99.90
20045;DHT22;10183;47.808;9.476;2022-09-09T03:51:43;14.30;99.90
20045;DHT22;10183;47.808;9.476;2022-09-09T03:54:10;14.30;99.90
20045;DHT22;10183;47.808;9.476;2022-09-09T03:56:36;14.30;99.90
20045;DHT22;10183;47.808;9.476;2022-09-09T03:59:03;14.30;99.90
20045;DHT22;10183;47.808;9.476;2022-09-09T04:01:30;14.40;99.90
20045;DHT22;10183;47.808;9.476;2022-09-09T04:03:56;14.30;99.90
20045;DHT22;10183;47.808;9.476;2022-09-09T04:06:24;14.40;99.90
20045;DHT22;10183;47.808;9.476;2022-09-09T04:08:50;14.40;99.90
20045;DHT22;10183;47.808;9.476;2022-09-09T04:11:18;14.40;99.90
20045;DHT22;10183;47.808;9.476;2022-09-09T04:13:44;14.50;99.90
20045;DHT22;10183;47.808;9.476;2022-09-09T04:16:11;14.50;99.90
20045;DHT22;10183;47.808;9.476;2022-09-09T04:18:39;14.50;99.90
20045;DHT22;10183;47.808;9.476;2022-09-09T04:21:05;14.50;99.90
20045;DHT22;10183;47.808;9.476;2022-09-09T04:23:33;14.50;99.90
20045;DHT22;10183;47.808;9.476;2022-09-09T04:26:01;14.50;99.90
20045;DHT22;10183;47.808;9.476;2022-09-09T04:28:30;14.40;99.90
20045;DHT22;10183;47.808;9.476;2022-09-09T04:30:56;14.30;99.90
20045;DHT22;10183;47.808;9.476;2022-09-09T04:33:24;14.40;99.90
20045;DHT22;10183;47.808;9.476;2022-09-09T04:35:53;14.40;99.90
20045;DHT22;10183;47.808;9.476;2022-09-09T04:38:20;14.40;99.90
20045;DHT22;10183;47.808;9.476;2022-09-09T04:40:49;14.40;99.90
20045;DHT22;10183;47.808;9.476;2022-09-09T04:43:15;14.40;99.90
20045;DHT22;10183;47.808;9.476;2022-09-09T04:45:42;14.40;99.90
20045;DHT22;10183;47.808;9.476;2022-09-09T04:48:09;14.30;99.90
20045;DHT22;10183;47.808;9.476;2022-09-09T04:50:35;14.30;99.90
20045;DHT22;10183;47.808;9.476;2022-09-09T04:53:03;14.30;99.90
20045;DHT22;10183;47.808;9.476;2022-09-09T04:55:31;14.20;99.90
20045;DHT22;10183;47.808;9.476;2022-09-09T04:57:57;14.10;99.90
20045;DHT22;10183;47.808;9.476;2022-09-09T05:00:24;14.00;99.90
20045;DHT22;10183;47.808;9.476;2022-09-09T05:02:50;13.90;99.90
20045;DHT22;10183;47.808;9.476;2022-09-09T05:05:17;13.90;99.90
20045;DHT22;10183;47.808;9.476;2022-09-09T05:07:44;13.80;99.90
20045;DHT22;10183;47.808;9.476;2022-09-09T05:10:10;13.70;99.90
20045;DHT22;10183;47.808;9.476;2022-09-09T05:12:37;13.70;99.90
20045;DHT22;10183;47.808;9.476;2022-09-09T05:15:03;13.60;99.90
20045;DHT22;10183;47.808;9.476;2022-09-09T05:17:29;13.50;99.90
20045;DHT22;10183;47.808;9.476;2022-09-09T05:19:55;13.50;99.90
20045;DHT22;10183;47.808;9.476;2022-09-09T05:22:22;13.50;99.90
20045;DHT22;10183;47.808;9.476;2022-09-09T05:24:49;13.50;99.90
20045;DHT22;10183;47.808;9.476;2022-09-09T05:27:18;13.50;99.90
20045;DHT22;10183;47.808;9.476;2022-09-09T05:29:46;13.40;99.90
20045;DHT22;10183;47.808;9.476;2022-09-09T05:32:12;13.40;99.90
20045;DHT22;10183;47.808;9.476;2022-09-09T05:34:40;13.30;99.90
20045;DHT22;10183;47.808;9.476;2022-09-09T05:37:07;13.40;99.90
20045;DHT22;10183;47.808;9.476;2022-09-09T05:39:34;13.40;99.90
20045;DHT22;10183;47.808;9.476;2022-09-09T05:42:03;13.40;99.90
20045;DHT22;10183;47.808;9.476;2022-09-09T05:44:30;13.30;99.90
20045;DHT22;10183;47.808;9.476;2022-09-09T05:46:56;13.40;99.90
20045;DHT22;10183;47.808;9.476;2022-09-09T05:49:24;13.30;99.90
20045;DHT22;10183;47.808;9.476;2022-09-09T05:51:50;13.30;99.90
20045;DHT22;10183;47.808;9.476;2022-09-09T05:54:16;13.30;99.90
20045;DHT22;10183;47.808;9.476;2022-09-09T05:56:43;13.20;99.90
20045;DHT22;10183;47.808;9.476;2022-09-09T05:59:09;13.20;99.90
20045;DHT22;10183;47.808;9.476;2022-09-09T06:01:36;13.20;99.90
20045;DHT22;10183;47.808;9.476;2022-09-09T06:04:06;13.30;99.90
20045;DHT22;10183;47.808;9.476;2022-09-09T06:06:35;13.30;99.90
20045;DHT22;10183;47.808;9.476;2022-09-09T06:09:04;13.30;99.90
20045;DHT22;10183;47.808;9.476;2022-09-09T06:11:37;13.30;99.90
20045;DHT22;10183;47.808;9.476;2022-09-09T06:14:05;13.40;99.90
20045;DHT22;10183;47.808;9.476;2022-09-09T06:16:32;13.40;99.90
20045;DHT22;10183;47.808;9.476;2022-09-09T06:18:59;13.40;99.90
20045;DHT22;10183;47.808;9.476;2022-09-09T06:21:27;13.40;99.90
20045;DHT22;10183;47.808;9.476;2022-09-09T06:23:53;13.40;99.90
20045;DHT22;10183;47.808;9.476;2022-09-09T06:26:24;13.40;99.90
20045;DHT22;10183;47.808;9.476;2022-09-09T06:28:53;13.40;99.90
20045;DHT22;10183;47.808;9.476;2022-09-09T06:31:22;13.50;99.90
20045;DHT22;10183;47.808;9.476;2022-09-09T06:33:50;13.50;99.90
20045;DHT22;10183;47.808;9.476;2022-09-09T06:36:19;13.40;99.90
20045;DHT22;10183;47.808;9.476;2022-09-09T06:38:46;13.40;99.90
20045;DHT22;10183;47.808;9.476;2022-09-09T06:41:14;13.40;99.90
20045;DHT22;10183;47.808;9.476;2022-09-09T06:43:41;13.50;99.90
20045;DHT22;10183;47.808;9.476;2022-09-09T06:46:12;13.50;99.90
20045;DHT22;10183;47.808;9.476;2022-09-09T06:48:39;13.50;99.90
20045;DHT22;10183;47.808;9.476;2022-09-09T06:51:16;13.50;99.90
20045;DHT22;10183;47.808;9.476;2022-09-09T06:53:44;13.40;99.90
20045;DHT22;10183;47.808;9.476;2022-09-09T06:58:39;13.50;99.90
20045;DHT22;10183;47.808;9.476;2022-09-09T07:01:09;13.50;99.90
20045;DHT22;10183;47.808;9.476;2022-09-09T07:03:35;13.50;99.90
20045;DHT22;10183;47.808;9.476;2022-09-09T07:06:02;13.50;99.90
20045;DHT22;10183;47.808;9.476;2022-09-09T07:08:29;13.50;99.90
20045;DHT22;10183;47.808;9.476;2022-09-09T07:11:07;13.60;99.90
20045;DHT22;10183;47.808;9.476;2022-09-09T07:13:34;13.50;99.90
20045;DHT22;10183;47.808;9.476;2022-09-09T07:16:05;13.60;99.90
20045;DHT22;10183;47.808;9.476;2022-09-09T07:18:32;13.70;99.90
20045;DHT22;10183;47.808;9.476;2022-09-09T07:20:59;13.70;99.90
20045;DHT22;10183;47.808;9.476;2022-09-09T07:23:27;13.80;99.90
20045;DHT22;10183;47.808;9.476;2022-09-09T07:25:53;13.80;99.90
20045;DHT22;10183;47.808;9.476;2022-09-09T07:28:20;13.90;99.90
20045;DHT22;10183;47.808;9.476;2022-09-09T07:30:56;13.90;99.90
20045;DHT22;10183;47.808;9.476;2022-09-09T07:33:23;13.80;99.90
20045;DHT22;10183;47.808;9.476;2022-09-09T07:35:51;13.90;99.90
20045;DHT22;10183;47.808;9.476;2022-09-09T07:38:19;13.90;99.90
20045;DHT22;10183;47.808;9.476;2022-09-09T07:40:45;13.90;99.90
20045;DHT22;10183;47.808;9.476;2022-09-09T07:43:12;14.00;99.90
20045;DHT22;10183;47.808;9.476;2022-09-09T07:45:38;14.00;99.90
20045;DHT22;10183;47.808;9.476;2022-09-09T07:48:06;14.10;99.90
20045;DHT22;10183;47.808;9.476;2022-09-09T07:50:32;14.20;99.90
20045;DHT22;10183;47.808;9.476;2022-09-09T07:52:59;14.10;99.90
20045;DHT22;10183;47.808;9.476;2022-09-09T07:55:26;14.30;99.90
20045;DHT22;10183;47.808;9.476;2022-09-09T07:57:54;14.30;99.90
20045;DHT22;10183;47.808;9.476;2022-09-09T08:00:21;14.50;99.90
20045;DHT22;10183;47.808;9.476;2022-09-09T08:02:48;14.60;99.90
20045;DHT22;10183;47.808;9.476;2022-09-09T08:05:14;14.60;99.90
20045;DHT22;10183;47.808;9.476;2022-09-09T08:07:52;14.70;99.90
20045;DHT22;10183;47.808;9.476;2022-09-09T08:10:19;14.70;99.90
20045;DHT22;10183;47.808;9.476;2022-09-09T08:12:45;14.80;99.90
20045;DHT22;10183;47.808;9.476;2022-09-09T08:15:12;14.70;99.90
20045;DHT22;10183;47.808;9.476;2022-09-09T08:17:39;14.70;99.90
20045;DHT22;10183;47.808;9.476;2022-09-09T08:20:07;14.80;99.90
20045;DHT22;10183;47.808;9.476;2022-09-09T08:22:33;14.90;99.90
20045;DHT22;10183;47.808;9.476;2022-09-09T08:25:00;14.90;99.90
20045;DHT22;10183;47.808;9.476;2022-09-09T08:27:28;15.10;99.90
20045;DHT22;10183;47.808;9.476;2022-09-09T08:29:55;15.30;99.90
20045;DHT22;10183;47.808;9.476;2022-09-09T08:32:22;15.10;99.90
20045;DHT22;10183;47.808;9.476;2022-09-09T08:34:49;15.10;99.90
20045;DHT22;10183;47.808;9.476;2022-09-09T08:37:15;15.30;99.90
20045;DHT22;10183;47.808;9.476;2022-09-09T08:39:43;15.40;99.90
20045;DHT22;10183;47.808;9.476;2022-09-09T08:45:12;15.30;99.90
20045;DHT22;10183;47.808;9.476;2022-09-09T08:50:22;15.80;99.90
20045;DHT22;10183;47.808;9.476;2022-09-09T08:53:16;15.70;99.90
20045;DHT22;10183;47.808;9.476;2022-09-09T08:55:52;15.80;99.90
20045;DHT22;10183;47.808;9.476;2022-09-09T08:58:28;15.80;99.90
20045;DHT22;10183;47.808;9.476;2022-09-09T09:09:04;15.90;99.90
20045;DHT22;10183;47.808;9.476;2022-09-09T09:11:40;16.00;99.90
20045;DHT22;10183;47.808;9.476;2022-09-09T09:14:16;16.40;99.90
20045;DHT22;10183;47.808;9.476;2022-09-09T09:17:12;16.20;99.90
20045;DHT22;10183;47.808;9.476;2022-09-09T09:19:41;16.40;99.90
20045;DHT22;10183;47.808;9.476;2022-09-09T09:22:32;16.30;99.90
20045;DHT22;10183;47.808;9.476;2022-09-09T09:25:12;16.40;99.90
20045;DHT22;10183;47.808;9.476;2022-09-09T09:30:23;15.80;99.90
20045;DHT22;10183;47.808;9.476;2022-09-09T09:35:43;16.00;99.90
20045;DHT22;10183;47.808;9.476;2022-09-09T09:38:21;16.20;99.90
20045;DHT22;10183;47.808;9.476;2022-09-09T09:40:56;16.30;99.90
20045;DHT22;10183;47.808;9.476;2022-09-09T09:45:54;16.30;99.90
20045;DHT22;10183;47.808;9.476;2022-09-09T09:48:21;16.50;99.90
20045;DHT22;10183;47.808;9.476;2022-09-09T09:50:48;16.80;99.90
20045;DHT22;10183;47.808;9.476;2022-09-09T09:53:30;16.90;99.90
20045;DHT22;10183;47.808;9.476;2022-09-09T09:56:05;16.80;99.90
20045;DHT22;10183;47.808;9.476;2022-09-09T10:01:30;16.80;99.90
20045;DHT22;10183;47.808;9.476;2022-09-09T10:04:02;17.10;99.90
20045;DHT22;10183;47.808;9.476;2022-09-09T10:06:30;17.60;99.90
20045;DHT22;10183;47.808;9.476;2022-09-09T10:08:56;18.20;99.90
20045;DHT22;10183;47.808;9.476;2022-09-09T10:14:03;17.40;99.90
20045;DHT22;10183;47.808;9.476;2022-09-09T10:19:31;17.30;99.90
20045;DHT22;10183;47.808;9.476;2022-09-09T10:22:26;17.40;99.90
20045;DHT22;10183;47.808;9.476;2022-09-09T10:30:47;18.30;99.90
20045;DHT22;10183;47.808;9.476;2022-09-09T10:33:10;18.50;99.90
20045;DHT22;10183;47.808;9.476;2022-09-09T10:36:12;19.00;99.90
20045;DHT22;10183;47.808;9.476;2022-09-09T10:38:47;19.70;99.90
20045;DHT22;10183;47.808;9.476;2022-09-09T10:44:22;19.40;99.90
20045;DHT22;10183;47.808;9.476;2022-09-09T10:55:18;17.30;99.90
20045;DHT22;10183;47.808;9.476;2022-09-09T10:57:50;16.80;99.90
20045;DHT22;10183;47.808;9.476;2022-09-09T11:02:57;16.90;99.90
20045;DHT22;10183;47.808;9.476;2022-09-09T11:05:43;16.90;99.90
20045;DHT22;10183;47.808;9.476;2022-09-09T11:08:21;16.90;99.90
20045;DHT22;10183;47.808;9.476;2022-09-09T11:14:15;16.70;99.90
20045;DHT22;10183;47.808;9.476;2022-09-09T11:19:38;17.30;99.90
20045;DHT22;10183;47.808;9.476;2022-09-09T11:25:01;18.30;99.90
20045;DHT22;10183;47.808;9.476;2022-09-09T11:27:54;18.80;99.90
20045;DHT22;10183;47.808;9.476;2022-09-09T11:36:29;18.20;99.90
20045;DHT22;10183;47.808;9.476;2022-09-09T11:41:36;17.70;99.90
20045;DHT22;10183;47.808;9.476;2022-09-09T11:44:11;17.60;99.90
20045;DHT22;10183;47.808;9.476;2022-09-09T11:46:39;17.50;99.90
20045;DHT22;10183;47.808;9.476;2022-09-09T11:51:51;18.50;99.90
20045;DHT22;10183;47.808;9.476;2022-09-09T11:54:31;18.30;99.90
20045;DHT22;10183;47.808;9.476;2022-09-09T11:56:58;18.20;99.90
20045;DHT22;10183;47.808;9.476;2022-09-09T11:59:27;17.60;99.90
20045;DHT22;10183;47.808;9.476;2022-09-09T12:02:17;17.90;99.90
20045;DHT22;10183;47.808;9.476;2022-09-09T12:05:07;18.30;99.90
20045;DHT22;10183;47.808;9.476;2022-09-09T12:07:52;19.20;99.90
20045;DHT22;10183;47.808;9.476;2022-09-09T12:10:31;19.10;99.90
20045;DHT22;10183;47.808;9.476;2022-09-09T12:13:18;19.00;99.90
20045;DHT22;10183;47.808;9.476;2022-09-09T12:15:56;18.50;99.90
20045;DHT22;10183;47.808;9.476;2022-09-09T12:18:33;17.90;99.90
20045;DHT22;10183;47.808;9.476;2022-09-09T12:24:03;18.90;99.90
20045;DHT22;10183;47.808;9.476;2022-09-09T12:32:20;20.50;99.90
20045;DHT22;10183;47.808;9.476;2022-09-09T12:37:33;19.70;99.90
20045;DHT22;10183;47.808;9.476;2022-09-09T12:40:06;19.50;99.90
20045;DHT22;10183;47.808;9.476;2022-09-09T12:42:32;20.60;99.90
20045;DHT22;10183;47.808;9.476;2022-09-09T12:45:14;21.00;99.90
20045;DHT22;10183;47.808;9.476;2022-09-09T12:47:49;19.90;99.90
20045;DHT22;10183;47.808;9.476;2022-09-09T12:50:20;20.30;99.90
20045;DHT22;10183;47.808;9.476;2022-09-09T12:53:03;20.20;99.90
20045;DHT22;10183;47.808;9.476;2022-09-09T12:55:36;21.30;99.90
20045;DHT22;10183;47.808;9.476;2022-09-09T12:58:04;21.20;99.90
20045;DHT22;10183;47.808;9.476;2022-09-09T13:00:33;21.20;99.90
20045;DHT22;10183;47.808;9.476;2022-09-09T13:03:01;20.90;99.90
20045;DHT22;10183;47.808;9.476;2022-09-09T13:05:35;20.60;99.90
20045;DHT22;10183;47.808;9.476;2022-09-09T13:08:03;21.40;99.90
20045;DHT22;10183;47.808;9.476;2022-09-09T13:10:39;23.30;99.90
20045;DHT22;10183;47.808;9.476;2022-09-09T13:13:21;22.80;99.90
20045;DHT22;10183;47.808;9.476;2022-09-09T13:15:56;21.80;99.90
20045;DHT22;10183;47.808;9.476;2022-09-09T13:18:27;21.10;99.90
20045;DHT22;10183;47.808;9.476;2022-09-09T13:20:53;20.80;99.90
20045;DHT22;10183;47.808;9.476;2022-09-09T13:23:21;21.10;99.90
20045;DHT22;10183;47.808;9.476;2022-09-09T13:25:59;21.20;99.90
20045;DHT22;10183;47.808;9.476;2022-09-09T13:28:27;21.20;99.90
20045;DHT22;10183;47.808;9.476;2022-09-09T13:31:06;21.70;99.90
20045;DHT22;10183;47.808;9.476;2022-09-09T13:33:45;22.50;99.90
20045;DHT22;10183;47.808;9.476;2022-09-09T13:36:12;22.40;99.90
20045;DHT22;10183;47.808;9.476;2022-09-09T13:41:28;22.30;99.90
20045;DHT22;10183;47.808;9.476;2022-09-09T13:43:56;22.20;99.90
20045;DHT22;10183;47.808;9.476;2022-09-09T13:46:36;20.70;99.90
20045;DHT22;10183;47.808;9.476;2022-09-09T13:49:19;21.30;99.90
20045;DHT22;10183;47.808;9.476;2022-09-09T13:51:47;21.50;99.90
20045;DHT22;10183;47.808;9.476;2022-09-09T13:54:17;21.90;99.90
20045;DHT22;10183;47.808;9.476;2022-09-09T13:56:44;22.90;99.90
20045;DHT22;10183;47.808;9.476;2022-09-09T13:59:16;23.30;99.90
20045;DHT22;10183;47.808;9.476;2022-09-09T14:01:45;22.90;99.90
20045;DHT22;10183;47.808;9.476;2022-09-09T14:04:11;21.70;99.90
20045;DHT22;10183;47.808;9.476;2022-09-09T14:06:38;21.30;99.90
20045;DHT22;10183;47.808;9.476;2022-09-09T14:09:06;22.40;99.90
20045;DHT22;10183;47.808;9.476;2022-09-09T14:11:33;21.90;99.90
20045;DHT22;10183;47.808;9.476;2022-09-09T14:13:59;21.80;99.90
20045;DHT22;10183;47.808;9.476;2022-09-09T14:16:27;21.50;99.90
20045;DHT22;10183;47.808;9.476;2022-09-09T14:18:53;22.20;99.90
20045;DHT22;10183;47.808;9.476;2022-09-09T14:21:23;23.10;99.90
20045;DHT22;10183;47.808;9.476;2022-09-09T14:23:49;22.50;99.90
20045;DHT22;10183;47.808;9.476;2022-09-09T14:26:15;21.90;99.90
20045;DHT22;10183;47.808;9.476;2022-09-09T14:28:42;20.80;99.90
20045;DHT22;10183;47.808;9.476;2022-09-09T14:31:08;20.80;99.90
20045;DHT22;10183;47.808;9.476;2022-09-09T14:33:36;21.90;99.90
20045;DHT22;10183;47.808;9.476;2022-09-09T14:36:03;21.90;99.90
20045;DHT22;10183;47.808;9.476;2022-09-09T14:38:34;22.10;99.90
20045;DHT22;10183;47.808;9.476;2022-09-09T14:41:14;23.20;99.90
20045;DHT22;10183;47.808;9.476;2022-09-09T14:43:42;21.40;99.90
20045;DHT22;10183;47.808;9.476;2022-09-09T14:46:11;21.50;99.90
20045;DHT22;10183;47.808;9.476;2022-09-09T14:48:38;22.80;99.90
20045;DHT22;10183;47.808;9.476;2022-09-09T14:51:11;21.60;99.90
20045;DHT22;10183;47.808;9.476;2022-09-09T14:53:39;22.40;99.90
20045;DHT22;10183;47.808;9.476;2022-09-09T14:56:17;22.10;99.90
20045;DHT22;10183;47.808;9.476;2022-09-09T14:58:43;23.20;99.90
20045;DHT22;10183;47.808;9.476;2022-09-09T15:01:15;23.70;99.90
20045;DHT22;10183;47.808;9.476;2022-09-09T15:03:48;24.20;99.90
20045;DHT22;10183;47.808;9.476;2022-09-09T15:06:15;24.10;99.90
20045;DHT22;10183;47.808;9.476;2022-09-09T15:08:43;24.50;99.90
20045;DHT22;10183;47.808;9.476;2022-09-09T15:11:11;25.20;99.90
20045;DHT22;10183;47.808;9.476;2022-09-09T15:13:39;25.10;99.90
20045;DHT22;10183;47.808;9.476;2022-09-09T15:16:14;24.30;99.90
20045;DHT22;10183;47.808;9.476;2022-09-09T15:18:42;23.80;99.90
20045;DHT22;10183;47.808;9.476;2022-09-09T15:21:13;24.80;99.90
20045;DHT22;10183;47.808;9.476;2022-09-09T15:23:40;24.20;99.90
20045;DHT22;10183;47.808;9.476;2022-09-09T15:26:06;22.80;99.90
20045;DHT22;10183;47.808;9.476;2022-09-09T15:28:34;21.30;99.90
20045;DHT22;10183;47.808;9.476;2022-09-09T15:31:27;20.50;99.90
20045;DHT22;10183;47.808;9.476;2022-09-09T15:33:56;19.90;99.90
20045;DHT22;10183;47.808;9.476;2022-09-09T15:36:29;18.90;99.90
20045;DHT22;10183;47.808;9.476;2022-09-09T15:38:57;18.70;99.90
20045;DHT22;10183;47.808;9.476;2022-09-09T15:41:24;18.80;99.90
20045;DHT22;10183;47.808;9.476;2022-09-09T15:43:52;18.50;99.90
20045;DHT22;10183;47.808;9.476;2022-09-09T15:46:28;18.80;99.90
20045;DHT22;10183;47.808;9.476;2022-09-09T15:49:05;20.10;99.90
20045;DHT22;10183;47.808;9.476;2022-09-09T15:51:32;22.30;99.90
20045;DHT22;10183;47.808;9.476;2022-09-09T15:53:58;23.00;99.90
20045;DHT22;10183;47.808;9.476;2022-09-09T15:56:26;22.30;99.90
20045;DHT22;10183;47.808;9.476;2022-09-09T15:58:53;23.30;99.90
20045;DHT22;10183;47.808;9.476;2022-09-09T16:01:20;24.80;99.90
20045;DHT22;10183;47.808;9.476;2022-09-09T16:03:47;26.20;99.90
20045;DHT22;10183;47.808;9.476;2022-09-09T16:06:14;25.80;99.90
20045;DHT22;10183;47.808;9.476;2022-09-09T16:08:43;23.30;99.90
20045;DHT22;10183;47.808;9.476;2022-09-09T16:11:15;22.20;99.90
20045;DHT22;10183;47.808;9.476;2022-09-09T16:13:43;21.50;99.90
20045;DHT22;10183;47.808;9.476;2022-09-09T16:16:13;21.80;99.90
20045;DHT22;10183;47.808;9.476;2022-09-09T16:18:45;22.50;99.90
20045;DHT22;10183;47.808;9.476;2022-09-09T16:21:29;22.70;99.90
20045;DHT22;10183;47.808;9.476;2022-09-09T16:23:56;24.80;99.90
20045;DHT22;10183;47.808;9.476;2022-09-09T16:26:23;22.90;99.90
20045;DHT22;10183;47.808;9.476;2022-09-09T16:28:50;22.70;99.90
20045;DHT22;10183;47.808;9.476;2022-09-09T16:31:21;22.10;99.90
20045;DHT22;10183;47.808;9.476;2022-09-09T16:33:48;22.70;99.90
20045;DHT22;10183;47.808;9.476;2022-09-09T16:36:17;22.70;99.90
20045;DHT22;10183;47.808;9.476;2022-09-09T16:38:44;22.70;99.90
20045;DHT22;10183;47.808;9.476;2022-09-09T16:41:11;21.50;99.90
20045;DHT22;10183;47.808;9.476;2022-09-09T16:43:39;20.80;99.90
20045;DHT22;10183;47.808;9.476;2022-09-09T16:46:14;20.60;99.90
20045;DHT22;10183;47.808;9.476;2022-09-09T16:48:42;21.00;99.90
